sensor_id;sensor_type;location;lat;lon;timestamp;P1;durP1;ratioP1;P2;durP2;ratioP2
64395;SDS011;50717;53.360;6.290;2022-10-22T00:01:49;31.67;;;15.68;;
64395;SDS011;50717;53.360;6.290;2022-10-22T00:04:15;29.35;;;15.15;;
64395;SDS011;50717;53.360;6.290;2022-10-22T00:06:40;29.30;;;15.63;;
64395;SDS011;50717;53.360;6.290;2022-10-22T00:09:09;34.70;;;16.13;;
64395;SDS011;50717;53.360;6.290;2022-10-22T00:11:37;27.67;;;15.38;;
64395;SDS011;50717;53.360;6.290;2022-10-22T00:14:03;29.58;;;15.88;;
64395;SDS011;50717;53.360;6.290;2022-10-22T00:18:55;27.88;;;15.48;;
64395;SDS011;50717;53.360;6.290;2022-10-22T00:21:20;30.63;;;16.45;;
64395;SDS011;50717;53.360;6.290;2022-10-22T00:23:46;29.92;;;14.82;;
64395;SDS011;50717;53.360;6.290;2022-10-22T00:26:12;29.15;;;16.20;;
64395;SDS011;50717;53.360;6.290;2022-10-22T00:28:38;27.42;;;15.23;;
64395;SDS011;50717;53.360;6.290;2022-10-22T00:33:29;29.42;;;15.55;;
64395;SDS011;50717;53.360;6.290;2022-10-22T00:35:55;29.60;;;15.52;;
64395;SDS011;50717;53.360;6.290;2022-10-22T00:38:21;34.45;;;16.08;;
64395;SDS011;50717;53.360;6.290;2022-10-22T00:40:47;29.48;;;15.73;;
64395;SDS011;50717;53.360;6.290;2022-10-22T00:43:13;29.30;;;14.68;;
64395;SDS011;50717;53.360;6.290;2022-10-22T00:45:41;34.03;;;16.17;;
64395;SDS011;50717;53.360;6.290;2022-10-22T00:48:10;28.83;;;16.08;;
64395;SDS011;50717;53.360;6.290;2022-10-22T00:50:40;30.55;;;16.25;;
64395;SDS011;50717;53.360;6.290;2022-10-22T00:53:11;32.03;;;16.58;;
64395;SDS011;50717;53.360;6.290;2022-10-22T00:55:40;33.97;;;15.77;;
64395;SDS011;50717;53.360;6.290;2022-10-22T00:58:08;34.13;;;16.00;;
64395;SDS011;50717;53.360;6.290;2022-10-22T01:00:34;28.58;;;14.95;;
64395;SDS011;50717;53.360;6.290;2022-10-22T01:03:00;29.48;;;15.27;;
64395;SDS011;50717;53.360;6.290;2022-10-22T01:05:30;31.60;;;15.68;;
64395;SDS011;50717;53.360;6.290;2022-10-22T01:08:02;29.30;;;15.48;;
64395;SDS011;50717;53.360;6.290;2022-10-22T01:10:34;32.58;;;15.30;;
64395;SDS011;50717;53.360;6.290;2022-10-22T01:15:56;33.30;;;16.60;;
64395;SDS011;50717;53.360;6.290;2022-10-22T01:21:38;30.63;;;16.05;;
64395;SDS011;50717;53.360;6.290;2022-10-22T01:27:08;29.50;;;15.93;;
64395;SDS011;50717;53.360;6.290;2022-10-22T01:32:24;33.42;;;15.98;;
64395;SDS011;50717;53.360;6.290;2022-10-22T01:34:53;33.58;;;15.85;;
64395;SDS011;50717;53.360;6.290;2022-10-22T01:37:29;25.52;;;14.98;;
64395;SDS011;50717;53.360;6.290;2022-10-22T01:39:58;28.88;;;16.05;;
64395;SDS011;50717;53.360;6.290;2022-10-22T01:42:25;29.20;;;15.38;;
64395;SDS011;50717;53.360;6.290;2022-10-22T01:44:51;30.45;;;15.23;;
64395;SDS011;50717;53.360;6.290;2022-10-22T01:50:14;27.98;;;16.13;;
64395;SDS011;50717;53.360;6.290;2022-10-22T02:01:05;36.90;;;16.33;;
64395;SDS011;50717;53.360;6.290;2022-10-22T02:04:00;29.88;;;15.55;;
64395;SDS011;50717;53.360;6.290;2022-10-22T02:06:30;31.23;;;16.35;;
64395;SDS011;50717;53.360;6.290;2022-10-22T02:08:57;25.40;;;14.68;;
64395;SDS011;50717;53.360;6.290;2022-10-22T02:11:25;30.85;;;15.82;;
64395;SDS011;50717;53.360;6.290;2022-10-22T02:13:52;25.33;;;15.57;;
64395;SDS011;50717;53.360;6.290;2022-10-22T02:16:55;32.90;;;16.58;;
64395;SDS011;50717;53.360;6.290;2022-10-22T02:19:29;32.75;;;17.30;;
64395;SDS011;50717;53.360;6.290;2022-10-22T02:22:08;30.20;;;14.63;;
64395;SDS011;50717;53.360;6.290;2022-10-22T02:24:34;23.90;;;14.20;;
64395;SDS011;50717;53.360;6.290;2022-10-22T02:32:17;34.88;;;15.65;;
64395;SDS011;50717;53.360;6.290;2022-10-22T02:34:45;26.65;;;14.82;;
64395;SDS011;50717;53.360;6.290;2022-10-22T02:37:13;29.60;;;14.85;;
64395;SDS011;50717;53.360;6.290;2022-10-22T02:39:40;37.35;;;14.88;;
64395;SDS011;50717;53.360;6.290;2022-10-22T02:42:07;28.85;;;14.85;;
64395;SDS011;50717;53.360;6.290;2022-10-22T02:44:33;30.75;;;14.25;;
64395;SDS011;50717;53.360;6.290;2022-10-22T02:46:59;25.92;;;14.00;;
64395;SDS011;50717;53.360;6.290;2022-10-22T02:49:25;26.23;;;14.05;;
64395;SDS011;50717;53.360;6.290;2022-10-22T02:51:50;26.45;;;13.55;;
64395;SDS011;50717;53.360;6.290;2022-10-22T02:54:16;28.98;;;14.10;;
64395;SDS011;50717;53.360;6.290;2022-10-22T02:56:41;31.77;;;12.75;;
64395;SDS011;50717;53.360;6.290;2022-10-22T02:59:07;30.40;;;14.13;;
64395;SDS011;50717;53.360;6.290;2022-10-22T03:01:33;35.70;;;14.70;;
64395;SDS011;50717;53.360;6.290;2022-10-22T03:03:59;29.85;;;13.93;;
64395;SDS011;50717;53.360;6.290;2022-10-22T03:06:24;29.98;;;12.75;;
64395;SDS011;50717;53.360;6.290;2022-10-22T03:08:50;27.40;;;13.40;;
64395;SDS011;50717;53.360;6.290;2022-10-22T03:11:16;23.55;;;12.27;;
64395;SDS011;50717;53.360;6.290;2022-10-22T03:13:41;24.75;;;12.65;;
64395;SDS011;50717;53.360;6.290;2022-10-22T03:16:07;24.73;;;13.27;;
64395;SDS011;50717;53.360;6.290;2022-10-22T03:18:33;32.42;;;14.00;;
64395;SDS011;50717;53.360;6.290;2022-10-22T03:23:49;27.23;;;12.95;;
64395;SDS011;50717;53.360;6.290;2022-10-22T03:26:16;40.70;;;13.55;;
64395;SDS011;50717;53.360;6.290;2022-10-22T03:28:41;25.00;;;12.82;;
64395;SDS011;50717;53.360;6.290;2022-10-22T03:31:08;30.80;;;13.27;;
64395;SDS011;50717;53.360;6.290;2022-10-22T03:33:33;24.67;;;12.55;;
64395;SDS011;50717;53.360;6.290;2022-10-22T03:35:59;22.88;;;12.25;;
64395;SDS011;50717;53.360;6.290;2022-10-22T03:40:51;25.90;;;12.23;;
64395;SDS011;50717;53.360;6.290;2022-10-22T03:45:42;31.13;;;12.85;;
64395;SDS011;50717;53.360;6.290;2022-10-22T03:48:08;33.13;;;13.43;;
64395;SDS011;50717;53.360;6.290;2022-10-22T03:50:34;32.47;;;13.18;;
64395;SDS011;50717;53.360;6.290;2022-10-22T03:52:59;26.67;;;12.35;;
64395;SDS011;50717;53.360;6.290;2022-10-22T03:55:25;33.50;;;12.20;;
64395;SDS011;50717;53.360;6.290;2022-10-22T03:57:51;27.65;;;12.23;;
64395;SDS011;50717;53.360;6.290;2022-10-22T04:00:17;32.65;;;12.65;;
64395;SDS011;50717;53.360;6.290;2022-10-22T04:02:42;23.25;;;12.60;;
64395;SDS011;50717;53.360;6.290;2022-10-22T04:05:08;31.63;;;13.27;;
64395;SDS011;50717;53.360;6.290;2022-10-22T04:07:34;25.85;;;12.85;;
64395;SDS011;50717;53.360;6.290;2022-10-22T04:09:59;28.23;;;13.63;;
64395;SDS011;50717;53.360;6.290;2022-10-22T04:12:25;28.63;;;13.75;;
64395;SDS011;50717;53.360;6.290;2022-10-22T04:14:50;26.67;;;12.18;;
64395;SDS011;50717;53.360;6.290;2022-10-22T04:17:16;25.73;;;12.52;;
64395;SDS011;50717;53.360;6.290;2022-10-22T04:19:42;31.58;;;12.70;;
64395;SDS011;50717;53.360;6.290;2022-10-22T04:22:08;34.33;;;13.43;;
64395;SDS011;50717;53.360;6.290;2022-10-22T04:24:33;32.80;;;12.73;;
64395;SDS011;50717;53.360;6.290;2022-10-22T04:26:59;23.40;;;11.80;;
64395;SDS011;50717;53.360;6.290;2022-10-22T04:29:25;22.92;;;12.45;;
64395;SDS011;50717;53.360;6.290;2022-10-22T04:31:51;25.40;;;11.98;;
64395;SDS011;50717;53.360;6.290;2022-10-22T04:36:42;20.73;;;11.70;;
64395;SDS011;50717;53.360;6.290;2022-10-22T04:39:08;27.38;;;12.02;;
64395;SDS011;50717;53.360;6.290;2022-10-22T04:41:34;25.63;;;11.82;;
64395;SDS011;50717;53.360;6.290;2022-10-22T04:44:02;22.30;;;10.70;;
64395;SDS011;50717;53.360;6.290;2022-10-22T04:46:29;27.17;;;11.55;;
64395;SDS011;50717;53.360;6.290;2022-10-22T04:48:57;34.90;;;11.88;;
64395;SDS011;50717;53.360;6.290;2022-10-22T04:51:23;24.52;;;10.82;;
64395;SDS011;50717;53.360;6.290;2022-10-22T04:53:51;27.42;;;11.98;;
64395;SDS011;50717;53.360;6.290;2022-10-22T04:58:45;25.42;;;12.35;;
64395;SDS011;50717;53.360;6.290;2022-10-22T05:01:12;23.92;;;12.02;;
64395;SDS011;50717;53.360;6.290;2022-10-22T05:03:40;25.05;;;12.52;;
64395;SDS011;50717;53.360;6.290;2022-10-22T05:08:32;23.45;;;11.90;;
64395;SDS011;50717;53.360;6.290;2022-10-22T05:10:58;28.88;;;12.82;;
64395;SDS011;50717;53.360;6.290;2022-10-22T05:15:50;23.88;;;12.02;;
64395;SDS011;50717;53.360;6.290;2022-10-22T05:18:15;29.08;;;12.57;;
64395;SDS011;50717;53.360;6.290;2022-10-22T05:20:41;23.73;;;12.32;;
64395;SDS011;50717;53.360;6.290;2022-10-22T05:23:07;29.63;;;12.90;;
64395;SDS011;50717;53.360;6.290;2022-10-22T05:25:36;25.42;;;12.00;;
64395;SDS011;50717;53.360;6.290;2022-10-22T05:28:03;24.35;;;11.73;;
64395;SDS011;50717;53.360;6.290;2022-10-22T05:32:54;31.15;;;10.48;;
64395;SDS011;50717;53.360;6.290;2022-10-22T05:35:20;19.88;;;10.27;;
64395;SDS011;50717;53.360;6.290;2022-10-22T05:37:46;25.98;;;10.35;;
64395;SDS011;50717;53.360;6.290;2022-10-22T05:40:11;25.05;;;11.27;;
64395;SDS011;50717;53.360;6.290;2022-10-22T05:42:37;28.50;;;11.63;;
64395;SDS011;50717;53.360;6.290;2022-10-22T05:45:03;27.15;;;10.43;;
64395;SDS011;50717;53.360;6.290;2022-10-22T05:47:29;20.13;;;10.73;;
64395;SDS011;50717;53.360;6.290;2022-10-22T05:49:55;25.90;;;12.02;;
64395;SDS011;50717;53.360;6.290;2022-10-22T05:52:23;25.38;;;10.35;;
64395;SDS011;50717;53.360;6.290;2022-10-22T05:54:49;26.00;;;11.02;;
64395;SDS011;50717;53.360;6.290;2022-10-22T05:57:14;21.65;;;11.00;;
64395;SDS011;50717;53.360;6.290;2022-10-22T05:59:40;28.30;;;11.20;;
64395;SDS011;50717;53.360;6.290;2022-10-22T06:02:07;24.48;;;11.10;;
64395;SDS011;50717;53.360;6.290;2022-10-22T06:04:33;19.33;;;10.32;;
64395;SDS011;50717;53.360;6.290;2022-10-22T06:06:59;23.55;;;10.20;;
64395;SDS011;50717;53.360;6.290;2022-10-22T06:09:27;24.67;;;11.57;;
64395;SDS011;50717;53.360;6.290;2022-10-22T06:11:55;21.33;;;11.35;;
64395;SDS011;50717;53.360;6.290;2022-10-22T06:14:22;24.38;;;9.98;;
64395;SDS011;50717;53.360;6.290;2022-10-22T06:16:48;25.63;;;10.85;;
64395;SDS011;50717;53.360;6.290;2022-10-22T06:19:15;25.13;;;11.18;;
64395;SDS011;50717;53.360;6.290;2022-10-22T06:21:44;20.38;;;11.60;;
64395;SDS011;50717;53.360;6.290;2022-10-22T06:24:10;24.10;;;10.48;;
64395;SDS011;50717;53.360;6.290;2022-10-22T06:26:36;24.75;;;11.95;;
64395;SDS011;50717;53.360;6.290;2022-10-22T06:29:02;27.02;;;11.48;;
64395;SDS011;50717;53.360;6.290;2022-10-22T06:31:29;21.58;;;11.63;;
64395;SDS011;50717;53.360;6.290;2022-10-22T06:34:11;24.77;;;11.25;;
64395;SDS011;50717;53.360;6.290;2022-10-22T06:36:38;24.17;;;11.57;;
64395;SDS011;50717;53.360;6.290;2022-10-22T06:39:06;27.35;;;11.80;;
64395;SDS011;50717;53.360;6.290;2022-10-22T06:41:38;25.70;;;10.90;;
64395;SDS011;50717;53.360;6.290;2022-10-22T06:44:04;27.52;;;12.40;;
64395;SDS011;50717;53.360;6.290;2022-10-22T06:46:30;24.25;;;11.55;;
64395;SDS011;50717;53.360;6.290;2022-10-22T06:48:57;37.33;;;11.68;;
64395;SDS011;50717;53.360;6.290;2022-10-22T06:51:25;23.33;;;12.15;;
64395;SDS011;50717;53.360;6.290;2022-10-22T06:53:51;24.60;;;11.93;;
64395;SDS011;50717;53.360;6.290;2022-10-22T06:56:19;25.13;;;13.10;;
64395;SDS011;50717;53.360;6.290;2022-10-22T06:58:46;19.70;;;10.50;;
64395;SDS011;50717;53.360;6.290;2022-10-22T07:01:14;26.10;;;11.65;;
64395;SDS011;50717;53.360;6.290;2022-10-22T07:03:40;26.02;;;12.55;;
64395;SDS011;50717;53.360;6.290;2022-10-22T07:06:08;24.77;;;12.60;;
64395;SDS011;50717;53.360;6.290;2022-10-22T07:08:35;25.73;;;12.07;;
64395;SDS011;50717;53.360;6.290;2022-10-22T07:11:09;28.50;;;12.32;;
64395;SDS011;50717;53.360;6.290;2022-10-22T07:13:37;25.20;;;11.80;;
64395;SDS011;50717;53.360;6.290;2022-10-22T07:16:03;26.85;;;12.43;;
64395;SDS011;50717;53.360;6.290;2022-10-22T07:18:30;25.38;;;11.70;;
64395;SDS011;50717;53.360;6.290;2022-10-22T07:20:56;35.83;;;13.38;;
64395;SDS011;50717;53.360;6.290;2022-10-22T07:23:22;27.27;;;12.30;;
64395;SDS011;50717;53.360;6.290;2022-10-22T07:25:48;27.45;;;12.50;;
64395;SDS011;50717;53.360;6.290;2022-10-22T07:28:13;33.08;;;12.43;;
64395;SDS011;50717;53.360;6.290;2022-10-22T07:30:39;23.27;;;12.23;;
64395;SDS011;50717;53.360;6.290;2022-10-22T07:33:05;28.33;;;12.07;;
64395;SDS011;50717;53.360;6.290;2022-10-22T07:35:30;24.10;;;11.80;;
64395;SDS011;50717;53.360;6.290;2022-10-22T07:37:56;20.88;;;11.85;;
64395;SDS011;50717;53.360;6.290;2022-10-22T07:40:22;22.67;;;12.18;;
64395;SDS011;50717;53.360;6.290;2022-10-22T07:42:47;22.17;;;11.45;;
64395;SDS011;50717;53.360;6.290;2022-10-22T07:45:13;19.42;;;10.73;;
64395;SDS011;50717;53.360;6.290;2022-10-22T07:47:39;23.85;;;11.88;;
64395;SDS011;50717;53.360;6.290;2022-10-22T07:50:05;28.38;;;12.43;;
64395;SDS011;50717;53.360;6.290;2022-10-22T07:52:32;25.48;;;11.27;;
64395;SDS011;50717;53.360;6.290;2022-10-22T07:54:57;28.90;;;11.30;;
64395;SDS011;50717;53.360;6.290;2022-10-22T07:57:23;29.02;;;11.57;;
64395;SDS011;50717;53.360;6.290;2022-10-22T07:59:49;24.83;;;11.38;;
64395;SDS011;50717;53.360;6.290;2022-10-22T08:02:15;19.05;;;10.52;;
64395;SDS011;50717;53.360;6.290;2022-10-22T08:04:40;26.60;;;10.85;;
64395;SDS011;50717;53.360;6.290;2022-10-22T08:07:06;32.75;;;11.23;;
64395;SDS011;50717;53.360;6.290;2022-10-22T08:09:32;24.60;;;11.48;;
64395;SDS011;50717;53.360;6.290;2022-10-22T08:11:57;32.08;;;11.05;;
64395;SDS011;50717;53.360;6.290;2022-10-22T08:14:23;22.23;;;10.00;;
64395;SDS011;50717;53.360;6.290;2022-10-22T08:16:48;25.08;;;10.95;;
64395;SDS011;50717;53.360;6.290;2022-10-22T08:19:14;23.45;;;10.63;;
64395;SDS011;50717;53.360;6.290;2022-10-22T08:21:45;23.85;;;10.10;;
64395;SDS011;50717;53.360;6.290;2022-10-22T08:24:11;27.60;;;10.75;;
64395;SDS011;50717;53.360;6.290;2022-10-22T08:26:38;19.88;;;10.00;;
64395;SDS011;50717;53.360;6.290;2022-10-22T08:29:05;22.33;;;10.30;;
64395;SDS011;50717;53.360;6.290;2022-10-22T08:31:31;25.15;;;10.15;;
64395;SDS011;50717;53.360;6.290;2022-10-22T08:33:57;20.58;;;10.35;;
64395;SDS011;50717;53.360;6.290;2022-10-22T08:38:48;22.00;;;9.35;;
64395;SDS011;50717;53.360;6.290;2022-10-22T08:48:56;17.83;;;8.75;;
64395;SDS011;50717;53.360;6.290;2022-10-22T08:51:32;22.88;;;8.50;;
64395;SDS011;50717;53.360;6.290;2022-10-22T08:59:40;19.60;;;7.45;;
64395;SDS011;50717;53.360;6.290;2022-10-22T09:02:46;15.10;;;6.78;;
64395;SDS011;50717;53.360;6.290;2022-10-22T09:08:10;19.88;;;6.88;;
64395;SDS011;50717;53.360;6.290;2022-10-22T09:10:38;17.40;;;6.35;;
64395;SDS011;50717;53.360;6.290;2022-10-22T09:13:13;14.90;;;6.43;;
64395;SDS011;50717;53.360;6.290;2022-10-22T09:15:42;15.05;;;6.28;;
64395;SDS011;50717;53.360;6.290;2022-10-22T09:18:18;17.80;;;5.93;;
64395;SDS011;50717;53.360;6.290;2022-10-22T09:24:01;18.80;;;6.18;;
64395;SDS011;50717;53.360;6.290;2022-10-22T09:26:29;13.07;;;5.30;;
64395;SDS011;50717;53.360;6.290;2022-10-22T09:28:58;22.02;;;6.18;;
64395;SDS011;50717;53.360;6.290;2022-10-22T09:31:25;21.50;;;6.00;;
64395;SDS011;50717;53.360;6.290;2022-10-22T09:33:52;19.00;;;4.85;;
64395;SDS011;50717;53.360;6.290;2022-10-22T09:38:47;16.05;;;5.72;;
64395;SDS011;50717;53.360;6.290;2022-10-22T09:41:15;18.65;;;5.15;;
64395;SDS011;50717;53.360;6.290;2022-10-22T09:43:45;12.00;;;5.20;;
64395;SDS011;50717;53.360;6.290;2022-10-22T09:46:14;19.63;;;5.38;;
64395;SDS011;50717;53.360;6.290;2022-10-22T09:48:43;31.85;;;5.05;;
64395;SDS011;50717;53.360;6.290;2022-10-22T09:51:18;15.55;;;5.05;;
64395;SDS011;50717;53.360;6.290;2022-10-22T09:53:46;21.25;;;5.57;;
64395;SDS011;50717;53.360;6.290;2022-10-22T09:56:33;12.52;;;4.55;;
64395;SDS011;50717;53.360;6.290;2022-10-22T09:59:00;20.25;;;5.05;;
64395;SDS011;50717;53.360;6.290;2022-10-22T10:01:28;15.48;;;5.05;;
64395;SDS011;50717;53.360;6.290;2022-10-22T10:04:01;19.75;;;5.28;;
64395;SDS011;50717;53.360;6.290;2022-10-22T10:06:38;14.20;;;5.10;;
64395;SDS011;50717;53.360;6.290;2022-10-22T10:09:25;15.65;;;5.07;;
64395;SDS011;50717;53.360;6.290;2022-10-22T10:25:13;17.42;;;5.55;;
64395;SDS011;50717;53.360;6.290;2022-10-22T10:30:54;22.15;;;6.13;;
64395;SDS011;50717;53.360;6.290;2022-10-22T10:33:31;15.10;;;5.45;;
64395;SDS011;50717;53.360;6.290;2022-10-22T10:36:30;12.98;;;5.40;;
64395;SDS011;50717;53.360;6.290;2022-10-22T10:39:22;16.98;;;5.97;;
64395;SDS011;50717;53.360;6.290;2022-10-22T10:41:57;11.90;;;5.63;;
64395;SDS011;50717;53.360;6.290;2022-10-22T10:49:51;16.55;;;6.00;;
64395;SDS011;50717;53.360;6.290;2022-10-22T10:52:34;15.85;;;6.38;;
64395;SDS011;50717;53.360;6.290;2022-10-22T10:57:45;17.90;;;6.07;;
64395;SDS011;50717;53.360;6.290;2022-10-22T11:00:26;21.90;;;6.18;;
64395;SDS011;50717;53.360;6.290;2022-10-22T11:05:56;15.05;;;5.70;;
64395;SDS011;50717;53.360;6.290;2022-10-22T11:08:33;16.13;;;5.60;;
64395;SDS011;50717;53.360;6.290;2022-10-22T11:13:56;11.95;;;4.82;;
64395;SDS011;50717;53.360;6.290;2022-10-22T11:16:31;15.52;;;4.43;;
64395;SDS011;50717;53.360;6.290;2022-10-22T11:19:24;14.02;;;4.45;;
64395;SDS011;50717;53.360;6.290;2022-10-22T11:22:13;9.88;;;4.25;;
64395;SDS011;50717;53.360;6.290;2022-10-22T11:24:55;8.20;;;4.07;;
64395;SDS011;50717;53.360;6.290;2022-10-22T11:30:14;14.63;;;5.68;;
64395;SDS011;50717;53.360;6.290;2022-10-22T11:32:43;11.57;;;5.65;;
64395;SDS011;50717;53.360;6.290;2022-10-22T11:35:17;15.93;;;6.88;;
64395;SDS011;50717;53.360;6.290;2022-10-22T11:37:57;19.10;;;7.65;;
64395;SDS011;50717;53.360;6.290;2022-10-22T11:40:36;20.70;;;8.18;;
64395;SDS011;50717;53.360;6.290;2022-10-22T11:43:08;17.98;;;7.53;;
64395;SDS011;50717;53.360;6.290;2022-10-22T11:45:37;16.98;;;8.30;;
64395;SDS011;50717;53.360;6.290;2022-10-22T11:53:50;18.75;;;8.90;;
64395;SDS011;50717;53.360;6.290;2022-10-22T11:55:56;19.23;;;8.77;;
64395;SDS011;50717;53.360;6.290;2022-10-22T11:58:42;18.63;;;8.60;;
64395;SDS011;50717;53.360;6.290;2022-10-22T12:08:43;18.42;;;8.38;;
64395;SDS011;50717;53.360;6.290;2022-10-22T12:16:22;14.27;;;7.03;;
64395;SDS011;50717;53.360;6.290;2022-10-22T12:21:36;20.83;;;6.57;;
64395;SDS011;50717;53.360;6.290;2022-10-22T12:24:03;12.73;;;5.65;;
64395;SDS011;50717;53.360;6.290;2022-10-22T12:26:31;16.63;;;5.85;;
64395;SDS011;50717;53.360;6.290;2022-10-22T12:29:01;17.33;;;5.95;;
64395;SDS011;50717;53.360;6.290;2022-10-22T12:31:34;14.60;;;5.18;;
64395;SDS011;50717;53.360;6.290;2022-10-22T12:34:01;14.07;;;4.28;;
64395;SDS011;50717;53.360;6.290;2022-10-22T12:36:32;9.52;;;4.30;;
64395;SDS011;50717;53.360;6.290;2022-10-22T12:39:03;18.65;;;5.53;;
64395;SDS011;50717;53.360;6.290;2022-10-22T12:41:35;11.48;;;5.60;;
64395;SDS011;50717;53.360;6.290;2022-10-22T12:44:03;18.52;;;6.00;;
64395;SDS011;50717;53.360;6.290;2022-10-22T12:46:30;21.10;;;6.38;;
64395;SDS011;50717;53.360;6.290;2022-10-22T12:48:58;18.83;;;5.90;;
64395;SDS011;50717;53.360;6.290;2022-10-22T12:51:26;12.55;;;4.90;;
64395;SDS011;50717;53.360;6.290;2022-10-22T12:53:53;11.75;;;3.80;;
64395;SDS011;50717;53.360;6.290;2022-10-22T12:56:31;14.20;;;4.25;;
64395;SDS011;50717;53.360;6.290;2022-10-22T12:59:02;13.85;;;5.07;;
64395;SDS011;50717;53.360;6.290;2022-10-22T13:01:41;21.38;;;4.20;;
64395;SDS011;50717;53.360;6.290;2022-10-22T13:09:39;14.73;;;4.78;;
64395;SDS011;50717;53.360;6.290;2022-10-22T13:12:08;15.38;;;5.22;;
64395;SDS011;50717;53.360;6.290;2022-10-22T13:14:40;17.85;;;4.93;;
64395;SDS011;50717;53.360;6.290;2022-10-22T13:17:09;13.77;;;4.85;;
64395;SDS011;50717;53.360;6.290;2022-10-22T13:19:39;11.85;;;4.22;;
64395;SDS011;50717;53.360;6.290;2022-10-22T13:25:42;15.43;;;5.25;;
64395;SDS011;50717;53.360;6.290;2022-10-22T13:28:19;14.48;;;4.47;;
64395;SDS011;50717;53.360;6.290;2022-10-22T13:30:52;11.55;;;3.90;;
64395;SDS011;50717;53.360;6.290;2022-10-22T13:33:28;10.35;;;3.28;;
64395;SDS011;50717;53.360;6.290;2022-10-22T13:35:57;10.40;;;2.90;;
64395;SDS011;50717;53.360;6.290;2022-10-22T13:40:50;6.45;;;2.80;;
64395;SDS011;50717;53.360;6.290;2022-10-22T13:45:42;9.95;;;2.30;;
64395;SDS011;50717;53.360;6.290;2022-10-22T13:48:14;10.82;;;3.00;;
64395;SDS011;50717;53.360;6.290;2022-10-22T13:50:43;11.30;;;2.40;;
64395;SDS011;50717;53.360;6.290;2022-10-22T13:53:11;11.68;;;2.25;;
64395;SDS011;50717;53.360;6.290;2022-10-22T13:55:42;11.57;;;2.25;;
64395;SDS011;50717;53.360;6.290;2022-10-22T13:58:15;10.77;;;2.35;;
64395;SDS011;50717;53.360;6.290;2022-10-22T14:00:47;12.40;;;2.35;;
64395;SDS011;50717;53.360;6.290;2022-10-22T14:03:16;13.18;;;2.58;;
64395;SDS011;50717;53.360;6.290;2022-10-22T14:05:45;10.68;;;2.10;;
64395;SDS011;50717;53.360;6.290;2022-10-22T14:08:12;10.15;;;1.83;;
64395;SDS011;50717;53.360;6.290;2022-10-22T14:10:40;10.88;;;2.83;;
64395;SDS011;50717;53.360;6.290;2022-10-22T14:13:07;10.43;;;2.08;;
64395;SDS011;50717;53.360;6.290;2022-10-22T14:15:34;9.40;;;1.63;;
64395;SDS011;50717;53.360;6.290;2022-10-22T14:18:01;10.63;;;2.08;;
64395;SDS011;50717;53.360;6.290;2022-10-22T14:20:29;9.15;;;1.90;;
64395;SDS011;50717;53.360;6.290;2022-10-22T14:22:59;5.88;;;1.38;;
64395;SDS011;50717;53.360;6.290;2022-10-22T14:25:41;7.57;;;1.77;;
64395;SDS011;50717;53.360;6.290;2022-10-22T14:28:10;9.05;;;1.60;;
64395;SDS011;50717;53.360;6.290;2022-10-22T14:30:36;8.98;;;1.75;;
64395;SDS011;50717;53.360;6.290;2022-10-22T14:33:22;9.88;;;1.33;;
64395;SDS011;50717;53.360;6.290;2022-10-22T14:38:16;10.45;;;1.70;;
64395;SDS011;50717;53.360;6.290;2022-10-22T14:43:19;6.72;;;1.40;;
64395;SDS011;50717;53.360;6.290;2022-10-22T14:45:47;10.82;;;1.83;;
64395;SDS011;50717;53.360;6.290;2022-10-22T14:48:13;8.20;;;1.45;;
64395;SDS011;50717;53.360;6.290;2022-10-22T14:50:40;8.63;;;1.88;;
64395;SDS011;50717;53.360;6.290;2022-10-22T14:53:06;5.20;;;1.20;;
64395;SDS011;50717;53.360;6.290;2022-10-22T14:57:58;4.10;;;1.58;;
64395;SDS011;50717;53.360;6.290;2022-10-22T15:02:49;9.65;;;1.40;;
64395;SDS011;50717;53.360;6.290;2022-10-22T15:07:41;20.08;;;2.40;;
64395;SDS011;50717;53.360;6.290;2022-10-22T15:10:08;8.55;;;1.42;;
64395;SDS011;50717;53.360;6.290;2022-10-22T15:12:34;7.07;;;1.58;;
64395;SDS011;50717;53.360;6.290;2022-10-22T15:17:26;5.55;;;1.23;;
64395;SDS011;50717;53.360;6.290;2022-10-22T15:19:52;10.73;;;1.50;;
64395;SDS011;50717;53.360;6.290;2022-10-22T15:22:20;5.53;;;2.33;;
64395;SDS011;50717;53.360;6.290;2022-10-22T15:24:46;9.50;;;1.58;;
64395;SDS011;50717;53.360;6.290;2022-10-22T15:27:13;10.02;;;1.92;;
64395;SDS011;50717;53.360;6.290;2022-10-22T15:29:40;12.43;;;1.80;;
64395;SDS011;50717;53.360;6.290;2022-10-22T15:32:06;11.20;;;2.10;;
64395;SDS011;50717;53.360;6.290;2022-10-22T15:34:36;13.35;;;2.03;;
64395;SDS011;50717;53.360;6.290;2022-10-22T15:37:04;10.90;;;2.08;;
64395;SDS011;50717;53.360;6.290;2022-10-22T15:39:39;12.88;;;3.17;;
64395;SDS011;50717;53.360;6.290;2022-10-22T15:42:06;16.73;;;2.97;;
64395;SDS011;50717;53.360;6.290;2022-10-22T15:44:33;16.70;;;2.42;;
64395;SDS011;50717;53.360;6.290;2022-10-22T15:49:27;11.40;;;2.40;;
64395;SDS011;50717;53.360;6.290;2022-10-22T15:51:53;9.60;;;2.53;;
64395;SDS011;50717;53.360;6.290;2022-10-22T15:54:21;17.00;;;2.90;;
64395;SDS011;50717;53.360;6.290;2022-10-22T15:56:48;11.10;;;2.13;;
64395;SDS011;50717;53.360;6.290;2022-10-22T16:01:40;16.65;;;2.42;;
64395;SDS011;50717;53.360;6.290;2022-10-22T16:04:07;15.77;;;2.78;;
64395;SDS011;50717;53.360;6.290;2022-10-22T16:09:02;11.52;;;2.20;;
64395;SDS011;50717;53.360;6.290;2022-10-22T16:11:30;11.20;;;2.00;;
64395;SDS011;50717;53.360;6.290;2022-10-22T16:16:26;18.92;;;2.17;;
64395;SDS011;50717;53.360;6.290;2022-10-22T16:18:53;15.80;;;3.42;;
64395;SDS011;50717;53.360;6.290;2022-10-22T16:23:46;17.30;;;2.50;;
64395;SDS011;50717;53.360;6.290;2022-10-22T16:26:12;10.45;;;2.20;;
64395;SDS011;50717;53.360;6.290;2022-10-22T16:28:39;14.95;;;2.78;;
64395;SDS011;50717;53.360;6.290;2022-10-22T16:31:07;17.73;;;2.30;;
64395;SDS011;50717;53.360;6.290;2022-10-22T16:33:35;16.35;;;2.60;;
64395;SDS011;50717;53.360;6.290;2022-10-22T16:36:03;15.85;;;2.63;;
64395;SDS011;50717;53.360;6.290;2022-10-22T16:38:30;18.13;;;3.17;;
64395;SDS011;50717;53.360;6.290;2022-10-22T16:43:42;18.58;;;3.35;;
64395;SDS011;50717;53.360;6.290;2022-10-22T16:46:11;19.08;;;2.67;;
64395;SDS011;50717;53.360;6.290;2022-10-22T16:48:37;15.50;;;2.65;;
64395;SDS011;50717;53.360;6.290;2022-10-22T16:51:07;12.80;;;2.30;;
64395;SDS011;50717;53.360;6.290;2022-10-22T16:53:36;17.38;;;2.38;;
64395;SDS011;50717;53.360;6.290;2022-10-22T16:56:02;20.40;;;2.55;;
64395;SDS011;50717;53.360;6.290;2022-10-22T17:00:54;15.32;;;2.53;;
64395;SDS011;50717;53.360;6.290;2022-10-22T17:05:45;19.92;;;3.25;;
64395;SDS011;50717;53.360;6.290;2022-10-22T17:10:36;21.85;;;2.80;;
64395;SDS011;50717;53.360;6.290;2022-10-22T17:13:03;13.20;;;2.60;;
64395;SDS011;50717;53.360;6.290;2022-10-22T17:15:30;18.48;;;3.65;;
64395;SDS011;50717;53.360;6.290;2022-10-22T17:17:58;19.50;;;3.58;;
64395;SDS011;50717;53.360;6.290;2022-10-22T17:20:24;26.90;;;2.90;;
64395;SDS011;50717;53.360;6.290;2022-10-22T17:22:50;25.42;;;3.70;;
64395;SDS011;50717;53.360;6.290;2022-10-22T17:27:48;21.73;;;4.13;;
64395;SDS011;50717;53.360;6.290;2022-10-22T17:30:15;17.85;;;3.03;;
64395;SDS011;50717;53.360;6.290;2022-10-22T17:32:43;24.92;;;3.08;;
64395;SDS011;50717;53.360;6.290;2022-10-22T17:35:09;29.70;;;4.40;;
64395;SDS011;50717;53.360;6.290;2022-10-22T17:37:36;19.02;;;3.00;;
64395;SDS011;50717;53.360;6.290;2022-10-22T17:40:02;17.23;;;2.60;;
64395;SDS011;50717;53.360;6.290;2022-10-22T17:42:29;24.90;;;4.25;;